Pays
Station

 

Conditions  météo  pour  Pattani  -  Thaïlande    Thaïlande

  
31 °C
    
 
 

METAR pour Pattani :

VTSK 140500Z 14005KT 9999 FEW030 31/21 Q1010

 

Voici le bulletin pour Pattani - Thaïlande.
 
Le bulletin a été fait il y a une heure et 7 minutes, à 05:00 UTC .
Le vent soufflait à la vitesse de 2.6 mètres par seconde de Sud-est (140°).
 
La température était de 31 °C, avec un point de rosée à 21 °C.
La température ressentie était de 34 °C.
 
La pression atmosphérique était de 1010 hPa.
L'humidité relative était de 55.4%.
 
Il y avait 1 à 2/8ème de nébulosité à une hauteur de 914 mètres.
 
La visibilité globale était de supérieure à 10 kilomètres.
 

 
 
 

Pays :   A   B   C   D   E   F   G   H   I   J   K   L   M   N   O   P   Q   R   S   T   U   V   W   Y   Z

 

Partenaires :  Info Météo avec Met'info
Météo Marine avec MeteoMarine.net
Infos Site  |  Infos Légales  |  Crédits  |  Confidentialité
Contactez-nous  |  Ajouter aux favoris
© 2013-2017 METAR - Tous droits réservés